Terminal Aerodrome Forecast
Issued by NWS Atlanta, GA

Home | Current Version | Previous Version | Text Only | Print | Product List | Glossary On
Versions: 1 2 3 4 5 6 7 8 9 10 11 12 13 14 15 16 17 18 19 20 21 22 23 24 25 26 27 28 29 30 31 32 33 34 35 36 37
534
FTUS42 KFFC 251139
TAFATL
TAF
KATL 251139Z 2512/2618 24010KT P6SM BKN015
      TEMPO 2512/2513 5SM -SHRA BR BKN009
     FM251300 29020G30KT P6SM SCT030
     FM251600 30014G24KT P6SM FEW060
     FM251800 31016G26KT P6SM SKC
     FM260000 31011KT P6SM SKC
     FM261000 34006KT P6SM SKC=

USA.gov is the U.S. government's official web portal to all federal, state and local government web resources and services.